sensor_id;sensor_type;location;lat;lon;timestamp;pressure;altitude;pressure_sealevel;temperature;humidity
34124;BME280;13153;52.316;21.166;2023-04-05T00:01:31;100966.03;;;5.05;51.49
34124;BME280;13153;52.316;21.166;2023-04-05T00:03:58;100965.84;;;5.02;51.80
34124;BME280;13153;52.316;21.166;2023-04-05T00:06:27;100965.69;;;4.99;51.81
34124;BME280;13153;52.316;21.166;2023-04-05T00:09:00;100963.06;;;4.99;51.87
34124;BME280;13153;52.316;21.166;2023-04-05T00:11:31;100966.47;;;4.98;51.65
34124;BME280;13153;52.316;21.166;2023-04-05T00:14:02;100963.53;;;4.92;52.27
34124;BME280;13153;52.316;21.166;2023-04-05T00:16:29;100964.25;;;4.89;52.36
34124;BME280;13153;52.316;21.166;2023-04-05T00:18:56;100954.72;;;4.90;52.27
34124;BME280;13153;52.316;21.166;2023-04-05T00:21:23;100950.38;;;4.90;52.01
34124;BME280;13153;52.316;21.166;2023-04-05T00:23:51;100954.72;;;4.90;52.19
34124;BME280;13153;52.316;21.166;2023-04-05T00:26:18;100955.53;;;4.89;52.12
34124;BME280;13153;52.316;21.166;2023-04-05T00:28:44;100946.53;;;4.84;52.00
34124;BME280;13153;52.316;21.166;2023-04-05T00:31:11;100952.38;;;4.80;52.86
34124;BME280;13153;52.316;21.166;2023-04-05T00:33:37;100953.19;;;4.79;52.49
34124;BME280;13153;52.316;21.166;2023-04-05T00:36:14;100942.75;;;4.79;52.35
34124;BME280;13153;52.316;21.166;2023-04-05T00:38:41;100945.28;;;4.77;52.84
34124;BME280;13153;52.316;21.166;2023-04-05T00:41:09;100939.88;;;4.74;52.93
34124;BME280;13153;52.316;21.166;2023-04-05T00:43:34;100933.69;;;4.72;52.96
34124;BME280;13153;52.316;21.166;2023-04-05T00:46:05;100938.97;;;4.74;53.26
34124;BME280;13153;52.316;21.166;2023-04-05T00:48:32;100938.78;;;4.71;53.44
34124;BME280;13153;52.316;21.166;2023-04-05T00:50:58;100929.09;;;4.68;53.09
34124;BME280;13153;52.316;21.166;2023-04-05T00:53:25;100927.28;;;4.67;53.08
34124;BME280;13153;52.316;21.166;2023-04-05T00:55:52;100923.56;;;4.62;52.55
34124;BME280;13153;52.316;21.166;2023-04-05T00:58:20;100926.78;;;4.58;52.45
34124;BME280;13153;52.316;21.166;2023-04-05T01:01:15;100919.59;;;4.54;52.61
34124;BME280;13153;52.316;21.166;2023-04-05T01:03:46;100929.94;;;4.52;53.32
34124;BME280;13153;52.316;21.166;2023-04-05T01:09:57;100921.38;;;4.40;53.38
34124;BME280;13153;52.316;21.166;2023-04-05T01:12:29;100926.22;;;4.34;53.23
34124;BME280;13153;52.316;21.166;2023-04-05T01:14:59;100916.53;;;4.31;53.08
34124;BME280;13153;52.316;21.166;2023-04-05T01:17:28;100907.72;;;4.29;53.65
34124;BME280;13153;52.316;21.166;2023-04-05T01:20:00;100911.22;;;4.30;53.96
34124;BME280;13153;52.316;21.166;2023-04-05T01:31:40;100914.97;;;4.20;53.36
34124;BME280;13153;52.316;21.166;2023-04-05T01:34:31;100924.31;;;4.17;54.14
34124;BME280;13153;52.316;21.166;2023-04-05T01:37:06;100920.91;;;4.18;54.13
34124;BME280;13153;52.316;21.166;2023-04-05T01:39:34;100920.81;;;4.16;54.03
34124;BME280;13153;52.316;21.166;2023-04-05T01:42:02;100919.09;;;4.17;54.45
34124;BME280;13153;52.316;21.166;2023-04-05T01:44:29;100914.78;;;4.17;54.05
34124;BME280;13153;52.316;21.166;2023-04-05T01:46:55;100918.81;;;4.12;54.62
34124;BME280;13153;52.316;21.166;2023-04-05T01:49:23;100914.50;;;4.13;53.95
34124;BME280;13153;52.316;21.166;2023-04-05T01:51:49;100920.53;;;4.12;53.66
34124;BME280;13153;52.316;21.166;2023-04-05T01:54:15;100915.03;;;4.07;54.11
34124;BME280;13153;52.316;21.166;2023-04-05T01:56:41;100920.09;;;4.04;53.75
34124;BME280;13153;52.316;21.166;2023-04-05T01:59:06;100916.50;;;4.02;54.31
34124;BME280;13153;52.316;21.166;2023-04-05T02:01:32;100921.59;;;4.01;54.78
34124;BME280;13153;52.316;21.166;2023-04-05T02:03:58;100918.00;;;3.98;54.93
34124;BME280;13153;52.316;21.166;2023-04-05T02:06:24;100917.81;;;3.95;54.41
34124;BME280;13153;52.316;21.166;2023-04-05T02:08:51;100916.84;;;3.93;54.80
34124;BME280;13153;52.316;21.166;2023-04-05T02:11:16;100914.22;;;3.93;54.11
34124;BME280;13153;52.316;21.166;2023-04-05T02:13:42;100923.75;;;3.93;54.73
34124;BME280;13153;52.316;21.166;2023-04-05T02:16:08;100912.34;;;3.91;54.62
34124;BME280;13153;52.316;21.166;2023-04-05T02:18:35;100909.81;;;3.92;54.54
34124;BME280;13153;52.316;21.166;2023-04-05T02:21:05;100916.91;;;3.95;54.93
34124;BME280;13153;52.316;21.166;2023-04-05T02:23:32;100919.72;;;3.98;54.29
34124;BME280;13153;52.316;21.166;2023-04-05T02:25:59;100917.28;;;4.01;54.20
34124;BME280;13153;52.316;21.166;2023-04-05T02:28:25;100918.28;;;4.03;54.26
34124;BME280;13153;52.316;21.166;2023-04-05T02:30:51;100913.09;;;4.03;54.50
34124;BME280;13153;52.316;21.166;2023-04-05T02:33:17;100920.94;;;4.05;54.41
34124;BME280;13153;52.316;21.166;2023-04-05T02:35:43;100912.34;;;4.06;54.23
34124;BME280;13153;52.316;21.166;2023-04-05T02:38:09;100919.34;;;4.07;54.33
34124;BME280;13153;52.316;21.166;2023-04-05T02:40:35;100914.03;;;4.05;54.78
34124;BME280;13153;52.316;21.166;2023-04-05T02:43:01;100912.34;;;4.06;54.31
34124;BME280;13153;52.316;21.166;2023-04-05T02:45:27;100907.94;;;4.05;54.90
34124;BME280;13153;52.316;21.166;2023-04-05T02:47:53;100909.50;;;4.01;54.20
34124;BME280;13153;52.316;21.166;2023-04-05T02:50:19;100911.28;;;4.02;54.75
34124;BME280;13153;52.316;21.166;2023-04-05T02:52:46;100912.00;;;4.00;54.49
34124;BME280;13153;52.316;21.166;2023-04-05T02:55:16;100918.91;;;3.99;54.11
34124;BME280;13153;52.316;21.166;2023-04-05T02:57:45;100914.41;;;3.96;53.97
34124;BME280;13153;52.316;21.166;2023-04-05T03:00:11;100909.13;;;3.95;54.57
34124;BME280;13153;52.316;21.166;2023-04-05T03:02:37;100917.81;;;3.95;54.29
34124;BME280;13153;52.316;21.166;2023-04-05T03:05:05;100910.81;;;3.94;54.50
34124;BME280;13153;52.316;21.166;2023-04-05T03:07:32;100913.41;;;3.94;53.82
34124;BME280;13153;52.316;21.166;2023-04-05T03:09:58;100907.22;;;3.92;54.32
34124;BME280;13153;52.316;21.166;2023-04-05T03:12:24;100916.63;;;3.90;54.50
34124;BME280;13153;52.316;21.166;2023-04-05T03:14:50;100918.34;;;3.90;53.94
34124;BME280;13153;52.316;21.166;2023-04-05T03:17:16;100913.84;;;3.87;54.32
34124;BME280;13153;52.316;21.166;2023-04-05T03:19:42;100918.88;;;3.84;53.93
34124;BME280;13153;52.316;21.166;2023-04-05T03:22:10;100912.56;;;3.81;54.36
34124;BME280;13153;52.316;21.166;2023-04-05T03:24:35;100916.88;;;3.80;54.34
34124;BME280;13153;52.316;21.166;2023-04-05T03:27:02;100922.78;;;3.78;54.05
34124;BME280;13153;52.316;21.166;2023-04-05T03:29:30;100921.78;;;3.76;54.57
34124;BME280;13153;52.316;21.166;2023-04-05T03:31:57;100922.59;;;3.75;54.74
34124;BME280;13153;52.316;21.166;2023-04-05T03:34:24;100916.78;;;3.79;54.90
34124;BME280;13153;52.316;21.166;2023-04-05T03:36:55;100908.16;;;3.80;54.70
34124;BME280;13153;52.316;21.166;2023-04-05T03:39:21;100918.69;;;3.81;54.64
34124;BME280;13153;52.316;21.166;2023-04-05T03:41:46;100916.97;;;3.82;54.25
34124;BME280;13153;52.316;21.166;2023-04-05T03:44:12;100910.16;;;3.84;54.46
34124;BME280;13153;52.316;21.166;2023-04-05T03:46:38;100909.44;;;3.86;54.50
34124;BME280;13153;52.316;21.166;2023-04-05T03:49:04;100910.44;;;3.88;54.32
34124;BME280;13153;52.316;21.166;2023-04-05T03:51:30;100905.31;;;3.90;55.21
34124;BME280;13153;52.316;21.166;2023-04-05T03:53:57;100909.81;;;3.92;55.00
34124;BME280;13153;52.316;21.166;2023-04-05T03:56:22;100903.00;;;3.94;54.42
34124;BME280;13153;52.316;21.166;2023-04-05T03:58:48;100911.81;;;3.96;54.98
34124;BME280;13153;52.316;21.166;2023-04-05T04:01:14;100903.09;;;3.96;54.65
34124;BME280;13153;52.316;21.166;2023-04-05T04:03:41;100911.81;;;3.96;55.33
34124;BME280;13153;52.316;21.166;2023-04-05T04:06:07;100909.34;;;3.85;55.09
34124;BME280;13153;52.316;21.166;2023-04-05T04:08:33;100911.91;;;3.98;55.61
34124;BME280;13153;52.316;21.166;2023-04-05T04:10:59;100907.94;;;4.05;54.80
34124;BME280;13153;52.316;21.166;2023-04-05T04:13:25;100921.16;;;4.08;54.55
34124;BME280;13153;52.316;21.166;2023-04-05T04:15:51;100913.44;;;4.09;54.84
34124;BME280;13153;52.316;21.166;2023-04-05T04:18:17;100915.50;;;4.15;54.70
34124;BME280;13153;52.316;21.166;2023-04-05T04:20:43;100918.56;;;4.22;54.50
34124;BME280;13153;52.316;21.166;2023-04-05T04:23:08;100912.13;;;4.30;54.48
34124;BME280;13153;52.316;21.166;2023-04-05T04:25:37;100924.34;;;4.31;54.18
34124;BME280;13153;52.316;21.166;2023-04-05T04:28:06;100915.53;;;4.29;54.29
34124;BME280;13153;52.316;21.166;2023-04-05T04:30:32;100924.06;;;4.27;54.07
34124;BME280;13153;52.316;21.166;2023-04-05T04:33:01;100930.44;;;4.32;54.14
34124;BME280;13153;52.316;21.166;2023-04-05T04:35:31;100927.31;;;4.38;54.69
34124;BME280;13153;52.316;21.166;2023-04-05T04:38:01;100922.28;;;4.41;54.42
34124;BME280;13153;52.316;21.166;2023-04-05T04:40:36;100924.25;;;4.45;55.09
34124;BME280;13153;52.316;21.166;2023-04-05T04:43:11;100925.72;;;4.54;54.72
34124;BME280;13153;52.316;21.166;2023-04-05T04:45:46;100918.88;;;4.56;54.53
34124;BME280;13153;52.316;21.166;2023-04-05T04:48:15;100924.28;;;4.59;54.37
34124;BME280;13153;52.316;21.166;2023-04-05T04:50:46;100922.81;;;4.64;54.50
34124;BME280;13153;52.316;21.166;2023-04-05T04:53:13;100922.44;;;4.73;54.51
34124;BME280;13153;52.316;21.166;2023-04-05T04:55:42;100917.59;;;4.79;54.53
34124;BME280;13153;52.316;21.166;2023-04-05T04:58:08;100916.16;;;4.84;54.66
34124;BME280;13153;52.316;21.166;2023-04-05T05:00:42;100919.09;;;4.90;54.72
34124;BME280;13153;52.316;21.166;2023-04-05T05:03:09;100927.28;;;4.96;54.11
34124;BME280;13153;52.316;21.166;2023-04-05T05:05:47;100927.63;;;5.03;54.38
34124;BME280;13153;52.316;21.166;2023-04-05T05:08:13;100926.00;;;5.05;54.26
34124;BME280;13153;52.316;21.166;2023-04-05T05:10:40;100922.69;;;5.07;54.56
34124;BME280;13153;52.316;21.166;2023-04-05T05:13:05;100925.56;;;5.12;54.63
34124;BME280;13153;52.316;21.166;2023-04-05T05:15:31;100928.34;;;5.15;53.78
34124;BME280;13153;52.316;21.166;2023-04-05T05:17:57;100931.94;;;5.17;54.28
34124;BME280;13153;52.316;21.166;2023-04-05T05:20:24;100934.63;;;5.18;54.05
34124;BME280;13153;52.316;21.166;2023-04-05T05:22:55;100931.34;;;5.22;54.13
34124;BME280;13153;52.316;21.166;2023-04-05T05:25:23;100930.72;;;5.26;54.04
34124;BME280;13153;52.316;21.166;2023-04-05T05:27:49;100929.16;;;5.30;54.27
34124;BME280;13153;52.316;21.166;2023-04-05T05:30:16;100935.63;;;5.37;54.13
34124;BME280;13153;52.316;21.166;2023-04-05T05:32:41;100934.19;;;5.42;54.07
34124;BME280;13153;52.316;21.166;2023-04-05T05:35:08;100934.53;;;5.48;53.76
34124;BME280;13153;52.316;21.166;2023-04-05T05:37:34;100936.50;;;5.52;53.89
34124;BME280;13153;52.316;21.166;2023-04-05T05:40:01;100940.16;;;5.55;53.88
34124;BME280;13153;52.316;21.166;2023-04-05T05:42:30;100943.03;;;5.60;53.58
34124;BME280;13153;52.316;21.166;2023-04-05T05:45:04;100950.31;;;5.66;53.80
34124;BME280;13153;52.316;21.166;2023-04-05T05:47:30;100946.06;;;5.68;53.41
34124;BME280;13153;52.316;21.166;2023-04-05T05:49:56;100951.72;;;5.75;53.68
34124;BME280;13153;52.316;21.166;2023-04-05T05:52:22;100957.31;;;5.83;53.03
34124;BME280;13153;52.316;21.166;2023-04-05T05:54:48;100947.13;;;5.87;52.83
34124;BME280;13153;52.316;21.166;2023-04-05T05:57:14;100943.25;;;5.95;52.93
34124;BME280;13153;52.316;21.166;2023-04-05T05:59:40;100944.41;;;6.01;52.64
34124;BME280;13153;52.316;21.166;2023-04-05T06:02:07;100952.47;;;6.05;52.91
34124;BME280;13153;52.316;21.166;2023-04-05T06:04:33;100951.75;;;6.08;53.00
34124;BME280;13153;52.316;21.166;2023-04-05T06:06:59;100952.88;;;6.13;53.19
34124;BME280;13153;52.316;21.166;2023-04-05T06:09:26;100955.59;;;6.14;52.71
34124;BME280;13153;52.316;21.166;2023-04-05T06:11:53;100954.69;;;6.14;52.61
34124;BME280;13153;52.316;21.166;2023-04-05T06:14:19;100955.91;;;6.20;52.65
34124;BME280;13153;52.316;21.166;2023-04-05T06:16:45;100956.16;;;6.25;52.12
34124;BME280;13153;52.316;21.166;2023-04-05T06:19:11;100959.56;;;6.24;52.07
34124;BME280;13153;52.316;21.166;2023-04-05T06:21:36;100957.13;;;6.27;51.90
34124;BME280;13153;52.316;21.166;2023-04-05T06:24:02;100960.00;;;6.32;51.91
34124;BME280;13153;52.316;21.166;2023-04-05T06:26:29;100961.69;;;6.31;51.93
34124;BME280;13153;52.316;21.166;2023-04-05T06:28:55;100955.50;;;6.29;51.42
34124;BME280;13153;52.316;21.166;2023-04-05T06:31:33;100961.53;;;6.28;51.45
34124;BME280;13153;52.316;21.166;2023-04-05T06:34:00;100961.69;;;6.31;51.36
34124;BME280;13153;52.316;21.166;2023-04-05T06:36:29;100962.69;;;6.33;51.77
34124;BME280;13153;52.316;21.166;2023-04-05T06:38:56;100965.66;;;6.41;51.34
34124;BME280;13153;52.316;21.166;2023-04-05T06:41:22;100969.50;;;6.47;50.77
34124;BME280;13153;52.316;21.166;2023-04-05T06:43:47;100965.41;;;6.52;50.67
34124;BME280;13153;52.316;21.166;2023-04-05T06:46:13;100969.16;;;6.57;50.49
34124;BME280;13153;52.316;21.166;2023-04-05T06:48:39;100974.53;;;6.60;49.95
34124;BME280;13153;52.316;21.166;2023-04-05T06:51:05;100965.97;;;6.63;49.98
34124;BME280;13153;52.316;21.166;2023-04-05T06:53:31;100968.66;;;6.65;50.13
34124;BME280;13153;52.316;21.166;2023-04-05T06:55:58;100971.44;;;6.68;49.92
34124;BME280;13153;52.316;21.166;2023-04-05T06:58:25;100978.47;;;6.69;49.60
34124;BME280;13153;52.316;21.166;2023-04-05T07:00:52;100974.13;;;6.69;49.17
34124;BME280;13153;52.316;21.166;2023-04-05T07:03:18;100969.13;;;6.74;49.35
34124;BME280;13153;52.316;21.166;2023-04-05T07:05:57;100977.44;;;6.83;48.83
34124;BME280;13153;52.316;21.166;2023-04-05T07:08:25;100975.16;;;6.89;48.47
34124;BME280;13153;52.316;21.166;2023-04-05T07:10:52;100976.13;;;6.91;48.56
34124;BME280;13153;52.316;21.166;2023-04-05T07:13:20;100978.84;;;6.94;47.45
34124;BME280;13153;52.316;21.166;2023-04-05T07:15:46;100982.53;;;6.97;47.78
34124;BME280;13153;52.316;21.166;2023-04-05T07:18:12;100983.34;;;6.96;47.27
34124;BME280;13153;52.316;21.166;2023-04-05T07:20:41;100991.28;;;6.98;47.67
34124;BME280;13153;52.316;21.166;2023-04-05T07:23:07;100988.66;;;6.98;47.35
34124;BME280;13153;52.316;21.166;2023-04-05T07:25:33;100987.09;;;7.02;47.36
34124;BME280;13153;52.316;21.166;2023-04-05T07:27:59;100990.09;;;7.09;47.11
34124;BME280;13153;52.316;21.166;2023-04-05T07:30:26;100990.56;;;7.18;46.28
34124;BME280;13153;52.316;21.166;2023-04-05T07:32:53;100988.25;;;7.24;45.93
34124;BME280;13153;52.316;21.166;2023-04-05T07:35:19;100980.53;;;7.27;46.25
34124;BME280;13153;52.316;21.166;2023-04-05T07:37:45;100978.91;;;7.29;45.12
34124;BME280;13153;52.316;21.166;2023-04-05T07:40:11;100991.47;;;7.37;45.08
34124;BME280;13153;52.316;21.166;2023-04-05T07:42:38;100985.72;;;7.44;44.93
34124;BME280;13153;52.316;21.166;2023-04-05T07:45:05;100981.59;;;7.49;44.80
34124;BME280;13153;52.316;21.166;2023-04-05T07:47:32;100985.19;;;7.51;44.22
34124;BME280;13153;52.316;21.166;2023-04-05T07:50:01;100982.91;;;7.58;44.14
34124;BME280;13153;52.316;21.166;2023-04-05T07:52:29;100983.13;;;7.63;44.76
34124;BME280;13153;52.316;21.166;2023-04-05T07:54:55;100989.78;;;7.74;44.74
34124;BME280;13153;52.316;21.166;2023-04-05T07:57:21;100984.81;;;7.80;43.61
34124;BME280;13153;52.316;21.166;2023-04-05T07:59:48;100996.19;;;7.81;42.92
34124;BME280;13153;52.316;21.166;2023-04-05T08:02:17;100996.28;;;7.82;42.69
34124;BME280;13153;52.316;21.166;2023-04-05T08:04:43;100993.66;;;7.82;43.10
34124;BME280;13153;52.316;21.166;2023-04-05T08:07:09;100990.28;;;7.85;42.55
34124;BME280;13153;52.316;21.166;2023-04-05T08:09:35;101000.00;;;7.87;42.57
34124;BME280;13153;52.316;21.166;2023-04-05T08:12:01;100984.56;;;7.93;42.23
34124;BME280;13153;52.316;21.166;2023-04-05T08:14:27;100986.81;;;8.04;40.63
34124;BME280;13153;52.316;21.166;2023-04-05T08:16:53;100987.19;;;8.13;39.93
34124;BME280;13153;52.316;21.166;2023-04-05T08:19:19;100988.31;;;8.18;39.46
34124;BME280;13153;52.316;21.166;2023-04-05T08:21:45;100994.88;;;8.27;40.79
34124;BME280;13153;52.316;21.166;2023-04-05T08:24:11;100989.31;;;8.39;40.38
34124;BME280;13153;52.316;21.166;2023-04-05T08:26:37;100989.59;;;8.45;41.07
34124;BME280;13153;52.316;21.166;2023-04-05T08:29:02;100995.03;;;8.50;40.89
34124;BME280;13153;52.316;21.166;2023-04-05T08:31:28;100989.16;;;8.55;40.63
34124;BME280;13153;52.316;21.166;2023-04-05T08:33:54;100992.88;;;8.60;41.50
34124;BME280;13153;52.316;21.166;2023-04-05T08:36:20;100992.38;;;8.69;42.13
34124;BME280;13153;52.316;21.166;2023-04-05T08:38:46;100992.69;;;8.77;42.62
34124;BME280;13153;52.316;21.166;2023-04-05T08:41:22;100992.06;;;8.82;41.27
34124;BME280;13153;52.316;21.166;2023-04-05T08:44:00;100987.66;;;8.81;40.71
34124;BME280;13153;52.316;21.166;2023-04-05T08:46:32;100988.41;;;8.79;40.96
34124;BME280;13153;52.316;21.166;2023-04-05T08:48:59;100988.47;;;8.80;40.58
34124;BME280;13153;52.316;21.166;2023-04-05T08:51:25;100991.19;;;8.82;39.87
34124;BME280;13153;52.316;21.166;2023-04-05T08:53:52;100986.81;;;8.82;39.66
34124;BME280;13153;52.316;21.166;2023-04-05T08:56:24;100990.28;;;8.81;38.95
34124;BME280;13153;52.316;21.166;2023-04-05T08:59:10;100991.44;;;8.88;38.38
34124;BME280;13153;52.316;21.166;2023-04-05T09:01:44;100990.81;;;8.93;38.31
34124;BME280;13153;52.316;21.166;2023-04-05T09:04:20;100987.56;;;8.99;38.60
34124;BME280;13153;52.316;21.166;2023-04-05T09:06:49;100992.78;;;8.99;39.14
34124;BME280;13153;52.316;21.166;2023-04-05T09:09:18;100992.72;;;8.98;38.54
34124;BME280;13153;52.316;21.166;2023-04-05T09:11:45;100991.06;;;9.00;38.28
34124;BME280;13153;52.316;21.166;2023-04-05T09:14:11;100990.31;;;9.02;38.74
34124;BME280;13153;52.316;21.166;2023-04-05T09:16:39;100986.97;;;9.06;38.55
34124;BME280;13153;52.316;21.166;2023-04-05T09:19:06;100991.34;;;9.06;38.93
34124;BME280;13153;52.316;21.166;2023-04-05T09:22:05;100991.91;;;8.99;37.24
34124;BME280;13153;52.316;21.166;2023-04-05T09:24:34;100989.00;;;8.92;37.91
34124;BME280;13153;52.316;21.166;2023-04-05T09:29:35;100994.41;;;8.96;38.25
34124;BME280;13153;52.316;21.166;2023-04-05T09:32:02;100988.31;;;8.97;37.65
34124;BME280;13153;52.316;21.166;2023-04-05T09:34:32;100991.78;;;8.96;36.85
34124;BME280;13153;52.316;21.166;2023-04-05T09:36:59;100986.53;;;8.96;36.39
34124;BME280;13153;52.316;21.166;2023-04-05T09:39:32;100984.28;;;9.05;37.16
34124;BME280;13153;52.316;21.166;2023-04-05T09:42:15;100988.06;;;9.11;36.23
34124;BME280;13153;52.316;21.166;2023-04-05T09:45:00;100990.19;;;9.20;36.43
34124;BME280;13153;52.316;21.166;2023-04-05T09:47:29;100983.22;;;9.43;36.29
34124;BME280;13153;52.316;21.166;2023-04-05T09:50:23;100979.78;;;9.88;36.93
34124;BME280;13153;52.316;21.166;2023-04-05T09:52:49;100983.00;;;10.04;34.45
34124;BME280;13153;52.316;21.166;2023-04-05T09:55:27;100978.56;;;10.03;34.75
34124;BME280;13153;52.316;21.166;2023-04-05T09:57:53;100973.38;;;10.04;35.08
34124;BME280;13153;52.316;21.166;2023-04-05T10:00:21;100979.34;;;10.00;34.54
34124;BME280;13153;52.316;21.166;2023-04-05T10:02:53;100978.22;;;9.93;33.63
34124;BME280;13153;52.316;21.166;2023-04-05T10:05:24;100990.00;;;9.81;33.38
34124;BME280;13153;52.316;21.166;2023-04-05T10:07:51;100986.97;;;9.70;32.89
34124;BME280;13153;52.316;21.166;2023-04-05T10:10:18;100982.81;;;9.54;33.67
34124;BME280;13153;52.316;21.166;2023-04-05T10:12:48;100977.91;;;9.41;32.94
34124;BME280;13153;52.316;21.166;2023-04-05T10:15:15;100983.81;;;9.36;34.03
34124;BME280;13153;52.316;21.166;2023-04-05T10:18:09;100983.56;;;9.30;34.38
34124;BME280;13153;52.316;21.166;2023-04-05T10:20:44;100981.41;;;9.19;34.70
34124;BME280;13153;52.316;21.166;2023-04-05T10:23:25;100982.13;;;9.15;35.54
34124;BME280;13153;52.316;21.166;2023-04-05T10:28:32;100989.66;;;9.08;36.07
34124;BME280;13153;52.316;21.166;2023-04-05T10:34:15;100974.69;;;9.05;36.38
34124;BME280;13153;52.316;21.166;2023-04-05T10:37:01;100979.81;;;9.02;35.68
34124;BME280;13153;52.316;21.166;2023-04-05T10:39:44;100973.53;;;8.99;35.46
34124;BME280;13153;52.316;21.166;2023-04-05T10:42:26;100979.53;;;8.96;35.95
34124;BME280;13153;52.316;21.166;2023-04-05T10:45:05;100970.78;;;8.96;36.32
34124;BME280;13153;52.316;21.166;2023-04-05T10:47:42;100974.41;;;8.99;36.41
34124;BME280;13153;52.316;21.166;2023-04-05T10:50:17;100977.31;;;9.05;37.22
34124;BME280;13153;52.316;21.166;2023-04-05T10:52:46;100971.34;;;9.09;36.87
34124;BME280;13153;52.316;21.166;2023-04-05T10:55:15;100969.94;;;9.17;37.09
34124;BME280;13153;52.316;21.166;2023-04-05T10:57:43;100971.19;;;9.27;37.02
34124;BME280;13153;52.316;21.166;2023-04-05T11:00:15;100967.16;;;9.35;36.71
34124;BME280;13153;52.316;21.166;2023-04-05T11:02:42;100967.28;;;9.38;35.40
34124;BME280;13153;52.316;21.166;2023-04-05T11:05:35;100963.94;;;9.42;36.03
34124;BME280;13153;52.316;21.166;2023-04-05T11:08:10;100962.28;;;9.44;35.81
34124;BME280;13153;52.316;21.166;2023-04-05T11:10:38;100963.03;;;9.42;35.20
34124;BME280;13153;52.316;21.166;2023-04-05T11:13:06;100953.56;;;9.45;35.25
34124;BME280;13153;52.316;21.166;2023-04-05T11:15:33;100964.06;;;9.45;35.40
34124;BME280;13153;52.316;21.166;2023-04-05T11:18:10;100971.09;;;9.46;34.03
34124;BME280;13153;52.316;21.166;2023-04-05T11:23:15;100969.56;;;9.51;34.25
34124;BME280;13153;52.316;21.166;2023-04-05T11:25:53;100972.50;;;9.59;34.35
34124;BME280;13153;52.316;21.166;2023-04-05T11:28:34;100965.16;;;9.73;34.61
34124;BME280;13153;52.316;21.166;2023-04-05T11:31:16;100969.53;;;9.72;34.15
34124;BME280;13153;52.316;21.166;2023-04-05T11:36:44;100973.69;;;9.67;35.18
34124;BME280;13153;52.316;21.166;2023-04-05T11:41:55;100970.22;;;9.46;34.13
34124;BME280;13153;52.316;21.166;2023-04-05T11:44:22;100971.25;;;9.28;34.09
34124;BME280;13153;52.316;21.166;2023-04-05T11:46:50;100971.09;;;9.24;34.63
34124;BME280;13153;52.316;21.166;2023-04-05T11:49:16;100964.22;;;9.27;35.03
34124;BME280;13153;52.316;21.166;2023-04-05T11:51:42;100970.56;;;9.33;34.55
34124;BME280;13153;52.316;21.166;2023-04-05T11:54:11;100969.97;;;9.40;34.88
34124;BME280;13153;52.316;21.166;2023-04-05T11:56:37;100971.06;;;9.45;35.49
34124;BME280;13153;52.316;21.166;2023-04-05T11:59:03;100968.66;;;9.51;34.97
34124;BME280;13153;52.316;21.166;2023-04-05T12:01:28;100968.09;;;9.58;35.11
34124;BME280;13153;52.316;21.166;2023-04-05T12:03:56;100972.03;;;9.69;35.29
34124;BME280;13153;52.316;21.166;2023-04-05T12:06:25;100967.84;;;9.74;34.21
34124;BME280;13153;52.316;21.166;2023-04-05T12:08:51;100964.38;;;9.75;33.43
34124;BME280;13153;52.316;21.166;2023-04-05T12:11:25;100964.50;;;9.78;34.06
34124;BME280;13153;52.316;21.166;2023-04-05T12:13:59;100964.94;;;9.90;33.96
34124;BME280;13153;52.316;21.166;2023-04-05T12:16:27;100956.94;;;9.87;33.86
34124;BME280;13153;52.316;21.166;2023-04-05T12:18:56;100961.19;;;9.84;32.88
34124;BME280;13153;52.316;21.166;2023-04-05T12:21:23;100963.56;;;9.76;33.10
34124;BME280;13153;52.316;21.166;2023-04-05T12:23:49;100964.28;;;9.72;33.70
34124;BME280;13153;52.316;21.166;2023-04-05T12:26:17;100964.84;;;9.65;33.88
34124;BME280;13153;52.316;21.166;2023-04-05T12:34:03;100957.53;;;9.36;34.16
34124;BME280;13153;52.316;21.166;2023-04-05T12:36:30;100957.66;;;9.39;33.96
34124;BME280;13153;52.316;21.166;2023-04-05T12:39:00;100958.63;;;9.41;33.27
34124;BME280;13153;52.316;21.166;2023-04-05T12:41:30;100955.69;;;9.33;33.84
34124;BME280;13153;52.316;21.166;2023-04-05T12:43:56;100955.34;;;9.24;34.46
34124;BME280;13153;52.316;21.166;2023-04-05T12:46:39;100950.59;;;9.15;35.02
34124;BME280;13153;52.316;21.166;2023-04-05T12:49:09;100951.06;;;9.05;34.91
34124;BME280;13153;52.316;21.166;2023-04-05T12:51:36;100961.03;;;8.93;34.23
34124;BME280;13153;52.316;21.166;2023-04-05T12:54:06;100956.44;;;8.87;34.21
34124;BME280;13153;52.316;21.166;2023-04-05T12:56:32;100953.75;;;8.86;35.09
34124;BME280;13153;52.316;21.166;2023-04-05T12:58:58;100953.03;;;8.90;34.19
34124;BME280;13153;52.316;21.166;2023-04-05T13:01:24;100961.81;;;8.90;34.10
34124;BME280;13153;52.316;21.166;2023-04-05T13:03:49;100963.84;;;8.98;34.93
34124;BME280;13153;52.316;21.166;2023-04-05T13:06:16;100955.53;;;9.08;35.20
34124;BME280;13153;52.316;21.166;2023-04-05T13:08:42;100946.50;;;9.22;35.25
34124;BME280;13153;52.316;21.166;2023-04-05T13:11:07;100954.03;;;9.35;35.40
34124;BME280;13153;52.316;21.166;2023-04-05T13:13:33;100956.13;;;9.44;34.67
34124;BME280;13153;52.316;21.166;2023-04-05T13:15:59;100962.41;;;9.47;35.02
34124;BME280;13153;52.316;21.166;2023-04-05T13:18:25;100955.47;;;9.49;34.20
34124;BME280;13153;52.316;21.166;2023-04-05T13:20:50;100954.50;;;9.47;34.82
34124;BME280;13153;52.316;21.166;2023-04-05T13:23:16;100956.66;;;9.35;33.87
34124;BME280;13153;52.316;21.166;2023-04-05T13:25:43;100954.44;;;9.23;34.29
34124;BME280;13153;52.316;21.166;2023-04-05T13:28:12;100948.31;;;9.24;34.27
34124;BME280;13153;52.316;21.166;2023-04-05T13:30:38;100956.13;;;9.21;33.84
34124;BME280;13153;52.316;21.166;2023-04-05T13:33:04;100959.69;;;9.03;34.73